createdAt,value
2019-01-04T00:00:00.861Z,506.58
2019-01-04T00:01:00.827Z,504.63
2019-01-04T00:02:00.818Z,510.73
2019-01-04T00:03:00.958Z,512.05
2019-01-04T00:04:00.801Z,504.10
2019-01-04T00:05:00.796Z,507.37
2019-01-04T00:06:00.772Z,508.11
2019-01-04T00:07:00.801Z,507.77
2019-01-04T00:08:00.763Z,510.15
2019-01-04T00:09:00.738Z,504.23
2019-01-04T00:10:00.730Z,507.24
2019-01-04T00:11:00.716Z,505.44
2019-01-04T00:12:00.738Z,505.14
2019-01-04T00:13:00.707Z,502.00
2019-01-04T00:14:00.703Z,507.96
2019-01-04T00:15:00.702Z,507.77
2019-01-04T00:16:00.689Z,513.31
2019-01-04T00:17:00.674Z,512.73
2019-01-04T00:18:01.484Z,506.07
2019-01-04T00:19:01.408Z,505.77
2019-01-04T00:20:00.649Z,509.05
2019-01-04T00:21:00.640Z,504.66
2019-01-04T00:22:00.611Z,504.44
2019-01-04T00:23:00.627Z,513.74
2019-01-04T00:24:00.599Z,505.87
2019-01-04T00:25:00.584Z,503.87
2019-01-04T00:26:00.544Z,509.68
2019-01-04T00:27:00.581Z,507.09
2019-01-04T00:28:00.555Z,503.68
2019-01-04T00:29:00.595Z,506.21
2019-01-04T00:30:00.548Z,505.42
2019-01-04T00:31:00.511Z,507.79
2019-01-04T00:32:01.393Z,506.23
2019-01-04T00:33:00.515Z,508.96
2019-01-04T00:34:00.498Z,501.98
2019-01-04T00:35:00.488Z,506.68
2019-01-04T00:36:00.497Z,505.63
2019-01-04T00:37:00.441Z,505.23
2019-01-04T00:38:00.515Z,505.86
2019-01-04T00:39:07.525Z,502.65
2019-01-04T00:40:08.460Z,506.79
2019-01-04T00:41:08.446Z,502.36
2019-01-04T00:42:08.441Z,500.75
2019-01-04T00:43:08.480Z,502.69
2019-01-04T00:44:09.094Z,498.51
2019-01-04T00:45:08.430Z,505.67
2019-01-04T00:46:08.377Z,502.14
2019-01-04T00:47:08.407Z,502.60
2019-01-04T00:48:07.411Z,503.35
2019-01-04T00:49:07.422Z,502.46
2019-01-04T00:50:08.418Z,511.40
2019-01-04T00:51:08.367Z,505.70
2019-01-04T00:52:08.329Z,507.10
2019-01-04T00:53:00.397Z,510.52
2019-01-04T00:54:00.317Z,507.20
2019-01-04T00:55:08.324Z,507.41
2019-01-04T00:56:07.361Z,504.98
2019-01-04T00:59:01.498Z,499.02
2019-01-04T01:00:01.396Z,512.83
2019-01-04T01:01:01.374Z,504.42
2019-01-04T01:02:01.439Z,509.92
2019-01-04T01:03:01.341Z,503.08
2019-01-04T01:04:01.912Z,506.17
2019-01-04T01:05:01.327Z,506.06
2019-01-04T01:06:01.320Z,503.48
2019-01-04T01:07:01.288Z,501.58
2019-01-04T01:08:01.251Z,508.40
2019-01-04T01:09:01.262Z,504.78
2019-01-04T01:10:01.253Z,504.51
2019-01-04T01:11:01.875Z,501.33
2019-01-04T01:12:01.988Z,504.34
2019-01-04T01:13:01.251Z,501.76
2019-01-04T01:14:01.263Z,509.03
2019-01-04T01:15:01.201Z,505.60
2019-01-04T01:16:01.197Z,503.91
2019-01-04T01:17:01.185Z,512.07
2019-01-04T01:18:01.188Z,508.32
2019-01-04T01:19:01.186Z,508.63
2019-01-04T01:20:01.127Z,508.74
2019-01-04T01:21:01.915Z,507.10
2019-01-04T01:22:01.135Z,501.69
2019-01-04T01:23:01.201Z,506.30
2019-01-04T01:24:01.137Z,509.68
2019-01-04T01:25:01.119Z,507.39
2019-01-04T01:26:01.078Z,508.42
2019-01-04T01:27:01.112Z,507.21
2019-01-04T01:28:01.077Z,505.51
2019-01-04T01:29:01.091Z,518.91
2019-01-04T01:30:01.077Z,508.13
2019-01-04T01:31:01.036Z,507.39
2019-01-04T01:32:01.019Z,503.09
2019-01-04T01:33:01.006Z,504.05
2019-01-04T01:34:01.046Z,502.09
2019-01-04T01:35:00.991Z,506.67
2019-01-04T01:36:00.974Z,506.76
2019-01-04T01:37:08.023Z,503.24
2019-01-04T01:38:09.359Z,510.10
2019-01-04T01:39:08.648Z,507.03
2019-01-04T01:40:08.093Z,505.80
2019-01-04T01:41:08.527Z,502.42
2019-01-04T01:42:01.070Z,521.40
2019-01-04T01:43:00.980Z,516.43
2019-01-04T01:44:00.931Z,512.07
2019-01-04T01:45:00.878Z,506.59
2019-01-04T01:46:00.883Z,515.94
2019-01-04T01:47:00.883Z,512.23
2019-01-04T01:48:00.870Z,517.19
2019-01-04T01:49:00.878Z,521.18
2019-01-04T01:50:00.820Z,507.16
2019-01-04T01:51:00.826Z,510.96
2019-01-04T01:52:00.812Z,511.59
2019-01-04T01:53:00.817Z,518.97
2019-01-04T01:54:00.840Z,506.05
2019-01-04T01:55:00.752Z,510.66
2019-01-04T01:56:00.767Z,515.05
2019-01-04T01:57:00.742Z,510.96
2019-01-04T01:58:00.751Z,505.63
2019-01-04T01:59:00.769Z,510.18
2019-01-04T02:00:09.575Z,502.05
2019-01-04T02:01:00.849Z,509.99
2019-01-04T02:02:00.710Z,507.75
2019-01-04T02:03:00.717Z,511.31
2019-01-04T02:04:00.700Z,502.82
2019-01-04T02:05:00.686Z,505.62
2019-01-04T02:06:00.640Z,507.28
2019-01-04T02:07:00.628Z,508.99
2019-01-04T02:08:00.631Z,506.05
2019-01-04T02:09:00.631Z,501.69
2019-01-04T02:10:00.611Z,501.04
2019-01-04T02:11:00.601Z,514.88
2019-01-04T02:12:00.598Z,511.83
2019-01-04T02:13:00.590Z,512.21
2019-01-04T02:14:00.584Z,503.67
2019-01-04T02:15:00.567Z,515.95
2019-01-04T02:16:00.562Z,504.35
2019-01-04T02:17:00.561Z,505.57
2019-01-04T02:18:00.555Z,510.87
2019-01-04T02:19:00.545Z,502.69
2019-01-04T02:20:00.504Z,500.89
2019-01-04T02:21:00.496Z,502.03
2019-01-04T02:22:00.501Z,497.69
2019-01-04T02:23:00.491Z,503.23
2019-01-04T02:24:00.494Z,498.11
2019-01-04T02:25:00.454Z,502.28
2019-01-04T02:26:00.441Z,504.71
2019-01-04T02:27:00.447Z,508.17
2019-01-04T02:28:00.443Z,511.81
2019-01-04T02:29:00.449Z,508.09
2019-01-04T02:30:00.678Z,500.01
2019-01-04T02:31:00.386Z,499.86
2019-01-04T02:32:00.445Z,510.71
2019-01-04T02:33:00.381Z,500.15
2019-01-04T02:34:00.395Z,504.27
2019-01-04T02:35:00.352Z,507.15
2019-01-04T02:36:00.342Z,501.86
2019-01-04T02:37:00.322Z,504.46
2019-01-04T02:38:00.316Z,502.34
2019-01-04T02:39:00.325Z,508.02
2019-01-04T02:40:00.326Z,500.67
2019-01-04T02:41:00.281Z,507.28
2019-01-04T02:42:00.276Z,515.26
2019-01-04T02:43:00.255Z,496.51
2019-01-04T02:44:00.272Z,509.43
2019-01-04T02:45:00.333Z,505.42
2019-01-04T02:46:00.224Z,499.54
2019-01-04T02:47:00.221Z,498.14
2019-01-04T02:48:00.205Z,500.88
2019-01-04T02:49:00.203Z,505.15
2019-01-04T02:50:00.199Z,505.76
2019-01-04T02:51:00.193Z,501.78
2019-01-04T02:52:00.170Z,503.98
2019-01-04T02:53:00.147Z,500.79
2019-01-04T02:54:00.145Z,503.09
2019-01-04T02:55:00.244Z,506.89
2019-01-04T02:56:00.130Z,508.29
2019-01-04T02:57:00.146Z,502.38
2019-01-04T02:58:00.114Z,505.92
2019-01-04T02:59:00.112Z,497.92
2019-01-04T03:00:00.159Z,502.95
2019-01-04T03:01:00.082Z,501.37
2019-01-04T03:02:00.072Z,498.88
2019-01-04T03:03:00.044Z,510.86
2019-01-04T03:04:00.054Z,503.60
2019-01-04T03:05:00.289Z,507.08
2019-01-04T03:06:00.016Z,498.48
2019-01-04T03:07:00.003Z,497.75
2019-01-04T03:08:00.026Z,504.21
2019-01-04T03:09:00.537Z,498.12
2019-01-04T03:10:00.021Z,501.96
2019-01-04T03:10:59.957Z,506.36
2019-01-04T03:11:59.966Z,503.29
2019-01-04T03:12:59.969Z,504.14
2019-01-04T03:13:59.959Z,504.33
2019-01-04T03:14:59.966Z,507.78
2019-01-04T03:15:59.940Z,504.71
2019-01-04T03:16:59.901Z,498.69
2019-01-04T03:17:59.885Z,502.97
2019-01-04T03:18:59.887Z,499.26
2019-01-04T03:20:00.079Z,505.88
2019-01-04T03:20:59.858Z,505.99
2019-01-04T03:21:59.841Z,514.94
2019-01-04T03:22:59.833Z,499.47
2019-01-04T03:23:59.856Z,508.12
2019-01-04T03:24:59.835Z,501.38
2019-01-04T03:25:59.800Z,512.53
2019-01-04T03:26:59.819Z,503.76
2019-01-04T03:28:06.871Z,493.80
2019-01-04T03:28:59.780Z,501.19
2019-01-04T03:29:59.821Z,506.34
2019-01-04T03:30:59.813Z,502.48
2019-01-04T03:31:59.752Z,514.35
2019-01-04T03:32:59.724Z,499.24
2019-01-04T03:33:59.710Z,505.68
2019-01-04T03:34:59.723Z,501.58
2019-01-04T03:35:59.713Z,499.63
2019-01-04T03:36:59.713Z,506.13
2019-01-04T03:37:59.699Z,504.84
2019-01-04T03:38:59.696Z,503.26
2019-01-04T03:39:59.698Z,506.07
2019-01-04T03:41:08.694Z,511.49
2019-01-04T03:42:06.708Z,508.74
2019-01-04T03:43:07.725Z,500.28
2019-01-04T03:44:08.210Z,511.49
2019-01-04T03:44:59.677Z,503.03
2019-01-04T03:45:59.588Z,506.47
2019-01-04T03:46:59.578Z,495.02
2019-01-04T03:47:59.580Z,510.96
2019-01-04T03:48:59.585Z,508.35
2019-01-04T03:49:59.620Z,499.04
2019-01-04T03:50:59.529Z,509.62
2019-01-04T03:51:59.584Z,493.84
2019-01-04T03:52:59.519Z,513.21
2019-01-04T03:53:59.519Z,492.59
2019-01-04T03:54:59.536Z,505.14
2019-01-04T03:55:59.479Z,506.52
2019-01-04T03:56:59.467Z,508.75
2019-01-04T03:57:59.477Z,509.81
2019-01-04T03:58:59.458Z,505.92
2019-01-04T03:59:59.488Z,510.18
2019-01-04T04:00:59.450Z,498.70
2019-01-04T04:01:59.430Z,513.68
2019-01-04T04:02:59.411Z,511.14
2019-01-04T04:03:59.416Z,504.97
2019-01-04T04:04:59.419Z,494.53
2019-01-04T04:05:59.402Z,505.35
2019-01-04T04:06:59.375Z,503.80
2019-01-04T04:07:59.364Z,510.49
2019-01-04T04:08:59.357Z,498.31
2019-01-04T04:09:59.348Z,508.32
2019-01-04T04:10:59.330Z,510.50
2019-01-04T04:11:59.330Z,503.71
2019-01-04T04:12:59.317Z,495.55
2019-01-04T04:13:59.311Z,497.72
2019-01-04T04:14:59.306Z,500.62
2019-01-04T04:15:59.301Z,508.80
2019-01-04T04:16:59.288Z,505.75
2019-01-04T04:17:59.323Z,496.82
2019-01-04T04:18:59.252Z,503.24
2019-01-04T04:19:59.272Z,498.19
2019-01-04T04:20:59.262Z,496.20
2019-01-04T04:21:59.217Z,494.89
2019-01-04T04:23:06.310Z,506.61
2019-01-04T04:24:07.346Z,503.30
2019-01-04T04:24:59.313Z,500.94
2019-01-04T04:26:06.286Z,497.89
2019-01-04T04:26:59.161Z,515.80
2019-01-04T04:27:59.184Z,509.00
2019-01-04T04:28:59.201Z,503.82
2019-01-04T04:29:59.135Z,499.78
2019-01-04T04:30:59.140Z,499.80
2019-01-04T04:31:59.085Z,505.27
2019-01-04T04:32:59.084Z,504.88
2019-01-04T04:33:59.081Z,507.92
2019-01-04T04:34:59.086Z,499.03
2019-01-04T04:35:59.090Z,503.32
2019-01-04T04:36:59.056Z,513.86
2019-01-04T04:37:59.035Z,504.85
2019-01-04T04:38:59.043Z,507.89
2019-01-04T04:39:59.038Z,503.50
2019-01-04T04:40:59.016Z,503.58
2019-01-04T04:41:59.019Z,508.21
2019-01-04T04:42:59.007Z,509.73
2019-01-04T04:43:58.991Z,512.55
2019-01-04T04:44:58.972Z,510.11
2019-01-04T04:45:58.995Z,508.29
2019-01-04T04:46:58.953Z,502.69
2019-01-04T04:47:58.950Z,512.89
2019-01-04T04:48:58.933Z,505.19
2019-01-04T04:49:58.921Z,503.93
2019-01-04T04:50:58.934Z,504.21
2019-01-04T04:51:58.893Z,498.22
2019-01-04T04:52:59.659Z,497.75
2019-01-04T04:53:58.891Z,494.84
2019-01-04T04:54:58.915Z,509.09
2019-01-04T04:55:58.912Z,507.21
2019-01-04T04:56:58.841Z,496.78
2019-01-04T04:57:58.866Z,499.55
2019-01-04T04:58:58.853Z,501.91
2019-01-04T04:59:58.826Z,511.84
2019-01-04T05:00:58.841Z,494.46
2019-01-04T05:01:58.807Z,510.69
2019-01-04T05:02:58.781Z,499.68
2019-01-04T05:03:58.773Z,504.35
2019-01-04T05:04:58.761Z,497.20
2019-01-04T05:05:58.787Z,503.85
2019-01-04T05:06:58.750Z,503.86
2019-01-04T05:07:58.721Z,507.09
2019-01-04T05:09:07.351Z,498.86
2019-01-04T05:10:06.775Z,502.02
2019-01-04T05:11:05.808Z,499.97
2019-01-04T05:11:58.725Z,510.11
2019-01-04T05:12:58.682Z,498.35
2019-01-04T05:13:58.692Z,498.27
2019-01-04T05:14:58.653Z,502.06
2019-01-04T05:15:58.666Z,498.55
2019-01-04T05:16:58.645Z,505.07
2019-01-04T05:17:58.644Z,498.84
2019-01-04T05:18:58.652Z,502.00
2019-01-04T05:19:58.609Z,498.52
2019-01-04T05:20:58.605Z,496.47
2019-01-04T05:21:58.578Z,499.05
2019-01-04T05:23:00.351Z,494.72
2019-01-04T05:24:00.350Z,497.72
2019-01-04T05:25:00.376Z,505.11
2019-01-04T05:25:58.576Z,502.31
2019-01-04T05:26:58.537Z,499.78
2019-01-04T05:27:58.526Z,498.24
2019-01-04T05:28:58.545Z,501.76
2019-01-04T05:29:58.503Z,501.42
2019-01-04T05:30:58.512Z,498.19
2019-01-04T05:31:58.471Z,507.60
2019-01-04T05:32:58.457Z,509.37
2019-01-04T05:33:58.462Z,502.80
2019-01-04T05:34:58.448Z,505.39
2019-01-04T05:35:58.454Z,507.16
2019-01-04T05:36:58.448Z,499.12
2019-01-04T05:37:58.405Z,510.96
2019-01-04T05:38:58.401Z,507.81
2019-01-04T05:39:58.423Z,497.66
2019-01-04T05:40:58.403Z,504.36
2019-01-04T05:41:59.362Z,500.22
2019-01-04T05:42:58.351Z,499.53
2019-01-04T05:43:58.347Z,499.07
2019-01-04T05:44:58.350Z,505.63
2019-01-04T05:45:58.359Z,497.70
2019-01-04T05:46:58.313Z,507.05
2019-01-04T05:47:58.316Z,514.17
2019-01-04T05:48:58.305Z,510.87
2019-01-04T05:49:58.826Z,513.22
2019-01-04T05:50:58.317Z,501.42
2019-01-04T05:51:58.253Z,509.22
2019-01-04T05:52:58.249Z,514.00
2019-01-04T05:53:58.247Z,506.40
2019-01-04T05:54:58.265Z,512.95
2019-01-04T05:55:58.245Z,511.36
2019-01-04T05:56:58.241Z,508.31
2019-01-04T05:57:58.223Z,498.20
2019-01-04T05:58:58.191Z,514.37
2019-01-04T05:59:58.192Z,504.52
2019-01-04T06:00:58.202Z,504.27
2019-01-04T06:01:58.157Z,505.17
2019-01-04T06:02:58.157Z,502.39
2019-01-04T06:03:58.170Z,501.46
2019-01-04T06:04:58.121Z,506.64
2019-01-04T06:05:58.117Z,504.00
2019-01-04T06:06:58.095Z,501.08
2019-01-04T06:07:58.104Z,503.16
2019-01-04T06:09:06.210Z,506.76
2019-01-04T06:10:06.478Z,503.98
2019-01-04T06:10:58.103Z,511.13
2019-01-04T06:11:58.055Z,507.40
2019-01-04T06:12:58.061Z,504.20
2019-01-04T06:13:58.021Z,508.46
2019-01-04T06:14:57.998Z,502.48
2019-01-04T06:15:58.050Z,503.16
2019-01-04T06:16:58.037Z,507.89
2019-01-04T06:17:58.000Z,500.77
2019-01-04T06:18:57.985Z,506.69
2019-01-04T06:19:57.985Z,512.01
2019-01-04T06:20:58.384Z,505.63
2019-01-04T06:21:57.972Z,500.96
2019-01-04T06:22:57.945Z,503.16
2019-01-04T06:23:57.971Z,506.49
2019-01-04T06:24:57.925Z,505.65
2019-01-04T06:25:57.950Z,503.91
2019-01-04T06:26:57.914Z,507.93
2019-01-04T06:27:57.868Z,505.34
2019-01-04T06:28:57.861Z,510.56
2019-01-04T06:29:57.859Z,515.43
2019-01-04T06:30:57.876Z,506.14
2019-01-04T06:31:57.847Z,514.93
2019-01-04T06:32:57.850Z,519.37
2019-01-04T06:33:57.882Z,502.03
2019-01-04T06:34:57.831Z,510.85
2019-01-04T06:35:57.824Z,506.86
2019-01-04T06:36:57.815Z,505.52
2019-01-04T06:37:57.807Z,502.27
2019-01-04T06:38:57.785Z,518.23
2019-01-04T06:39:57.760Z,508.69
2019-01-04T06:40:57.759Z,504.44
2019-01-04T06:41:57.755Z,505.70
2019-01-04T06:42:57.740Z,505.11
2019-01-04T06:43:57.742Z,509.62
2019-01-04T06:44:57.702Z,504.19
2019-01-04T06:46:05.403Z,512.35
2019-01-04T06:46:57.778Z,505.12
2019-01-04T06:47:57.707Z,512.36
2019-01-04T06:48:57.663Z,512.29
2019-01-04T06:49:57.656Z,515.58
2019-01-04T06:50:57.676Z,520.00
2019-01-04T06:51:57.623Z,520.17
2019-01-04T06:52:57.617Z,507.90
2019-01-04T06:53:57.622Z,505.00
2019-01-04T06:54:57.609Z,510.83
2019-01-04T06:55:57.590Z,517.27
2019-01-04T06:56:57.619Z,518.72
2019-01-04T06:57:57.555Z,513.24
2019-01-04T06:58:57.568Z,515.46
2019-01-04T06:59:57.539Z,526.76
2019-01-04T07:00:57.570Z,508.76
2019-01-04T07:01:57.583Z,516.25
2019-01-04T07:02:57.546Z,511.76
2019-01-04T07:03:57.493Z,518.53
2019-01-04T07:04:57.504Z,512.67
2019-01-04T07:05:57.504Z,511.84
2019-01-04T07:06:57.506Z,507.56
2019-01-04T07:07:59.398Z,505.86
2019-01-04T07:08:57.494Z,524.38
2019-01-04T07:09:57.444Z,513.54
2019-01-04T07:10:57.488Z,521.07
2019-01-04T07:11:57.450Z,525.26
2019-01-04T07:12:57.445Z,512.28
2019-01-04T07:13:57.397Z,509.93
2019-01-04T07:14:57.366Z,515.07
2019-01-04T07:15:57.370Z,529.23
2019-01-04T07:16:57.394Z,522.48
2019-01-04T07:17:57.349Z,508.47
2019-01-04T07:18:57.365Z,510.29
2019-01-04T07:19:57.339Z,516.05
2019-01-04T07:20:57.332Z,518.80
2019-01-04T07:21:57.326Z,507.07
2019-01-04T07:22:57.289Z,519.89
2019-01-04T07:23:57.290Z,517.79
2019-01-04T07:24:57.308Z,511.50
2019-01-04T07:25:57.269Z,509.95
2019-01-04T07:26:57.406Z,516.14
2019-01-04T07:28:00.905Z,528.22
2019-01-04T07:28:57.248Z,520.63
2019-01-04T07:29:57.230Z,519.07
2019-01-04T07:30:57.228Z,516.32
2019-01-04T07:31:57.215Z,519.76
2019-01-04T07:32:57.190Z,509.68
2019-01-04T07:33:57.206Z,513.89
2019-01-04T07:34:57.201Z,517.16
2019-01-04T07:35:57.165Z,519.29
2019-01-04T07:36:57.179Z,510.41
2019-01-04T07:37:57.153Z,517.77
2019-01-04T07:38:57.174Z,508.09
2019-01-04T07:39:57.134Z,514.16
2019-01-04T07:40:57.120Z,513.42
2019-01-04T07:41:57.118Z,515.36
2019-01-04T07:42:57.145Z,521.63
2019-01-04T07:43:57.126Z,506.29
2019-01-04T07:44:57.072Z,523.31
2019-01-04T07:45:57.069Z,503.41
2019-01-04T07:46:57.071Z,518.29
2019-01-04T07:47:57.041Z,509.38
2019-01-04T07:48:57.034Z,518.46
2019-01-04T07:49:57.034Z,508.73
2019-01-04T07:50:57.011Z,516.48
2019-01-04T07:51:57.036Z,519.05
2019-01-04T07:52:57.005Z,516.38
2019-01-04T07:53:56.971Z,516.92
2019-01-04T07:54:56.969Z,509.49
2019-01-04T07:55:56.962Z,510.44
2019-01-04T07:56:56.979Z,509.60
2019-01-04T07:57:56.952Z,521.54
2019-01-04T07:58:56.916Z,513.60
2019-01-04T07:59:56.932Z,523.69
2019-01-04T08:00:56.905Z,522.56
2019-01-04T08:01:56.906Z,503.47
2019-01-04T08:02:56.879Z,519.47
2019-01-04T08:03:56.876Z,514.38
2019-01-04T08:04:56.879Z,518.48
2019-01-04T08:05:56.884Z,515.23
2019-01-04T08:06:56.862Z,504.73
2019-01-04T08:07:57.386Z,517.58
2019-01-04T08:08:56.823Z,521.89
2019-01-04T08:09:56.810Z,518.49
2019-01-04T08:10:56.811Z,522.85
2019-01-04T08:11:56.836Z,525.29
2019-01-04T08:12:56.764Z,511.88
2019-01-04T08:13:56.748Z,517.95
2019-01-04T08:14:56.760Z,518.26
2019-01-04T08:15:56.746Z,512.75
2019-01-04T08:16:56.753Z,512.36
2019-01-04T08:17:56.713Z,513.08
2019-01-04T08:18:56.712Z,521.74
2019-01-04T08:19:56.800Z,515.69
2019-01-04T08:20:56.696Z,511.59
2019-01-04T08:21:56.721Z,523.57
2019-01-04T08:22:56.656Z,508.49
2019-01-04T08:23:56.656Z,513.20
2019-01-04T08:24:56.644Z,517.23
2019-01-04T08:25:56.691Z,519.51
2019-01-04T08:26:56.662Z,513.96
2019-01-04T08:27:56.627Z,516.22
2019-01-04T08:28:56.647Z,508.18
2019-01-04T08:30:03.681Z,512.26
2019-01-04T08:30:56.606Z,508.25
2019-01-04T08:32:03.658Z,515.12
2019-01-04T08:33:03.627Z,513.04
2019-01-04T08:34:04.607Z,515.27
2019-01-04T08:37:18.017Z,500.24
2019-01-04T08:38:24.866Z,520.73
2019-01-04T08:39:25.835Z,518.37
2019-01-04T08:40:25.783Z,511.92
2019-01-04T08:41:17.761Z,511.28
2019-01-04T08:42:25.860Z,512.53
2019-01-04T08:43:26.358Z,515.99
2019-01-04T08:44:17.729Z,508.43
2019-01-04T08:45:17.712Z,519.50
2019-01-04T08:46:25.317Z,512.70
2019-01-04T08:47:17.767Z,507.82
2019-01-04T08:48:17.705Z,521.03
2019-01-04T08:49:25.543Z,512.31
2019-01-04T08:50:24.773Z,523.63
2019-01-04T08:51:17.684Z,509.49
2019-01-04T08:52:17.728Z,519.55
2019-01-04T08:53:34.782Z,515.30
2019-01-04T08:55:57.231Z,511.76
2019-01-04T08:56:57.137Z,508.29
2019-01-04T08:57:57.088Z,509.45
2019-01-04T08:58:57.072Z,512.53
2019-01-04T08:59:57.171Z,511.64
2019-01-04T09:00:57.058Z,523.52
2019-01-04T09:01:57.095Z,525.44
2019-01-04T09:02:57.031Z,513.66
2019-01-04T09:03:57.602Z,514.80
2019-01-04T09:04:58.583Z,521.57
2019-01-04T09:05:57.044Z,509.22
2019-01-04T09:06:56.994Z,503.74
2019-01-04T09:07:57.006Z,515.56
2019-01-04T09:08:56.992Z,512.51
2019-01-04T09:09:56.954Z,521.17
2019-01-04T09:10:56.996Z,518.09
2019-01-04T09:11:56.957Z,523.00
2019-01-04T09:12:56.985Z,509.05
2019-01-04T09:13:56.948Z,514.71
2019-01-04T09:14:56.941Z,522.33
2019-01-04T09:15:56.967Z,510.12
2019-01-04T09:16:56.912Z,516.12
2019-01-04T09:17:57.698Z,520.95
2019-01-04T09:18:56.910Z,521.95
2019-01-04T09:19:56.923Z,521.63
2019-01-04T09:20:56.873Z,508.67
2019-01-04T09:21:56.855Z,513.45
2019-01-04T09:22:56.903Z,511.15
2019-01-04T09:23:56.831Z,521.49
2019-01-04T09:24:56.817Z,516.97
2019-01-04T09:25:56.827Z,517.47
2019-01-04T09:26:56.832Z,514.32
2019-01-04T09:27:56.834Z,523.75
2019-01-04T09:28:56.773Z,527.57
2019-01-04T09:29:57.526Z,515.40
2019-01-04T09:30:56.845Z,517.39
2019-01-04T09:31:56.785Z,511.35
2019-01-04T09:32:56.777Z,508.62
2019-01-04T09:33:57.134Z,516.22
2019-01-04T09:34:56.775Z,511.08
2019-01-04T09:35:56.722Z,533.06
2019-01-04T09:36:56.708Z,526.08
2019-01-04T09:37:56.721Z,512.73
2019-01-04T09:38:56.695Z,524.76
2019-01-04T09:39:56.653Z,515.09
2019-01-04T09:40:57.610Z,520.99
2019-01-04T09:41:56.635Z,525.72
2019-01-04T09:42:56.659Z,524.84
2019-01-04T09:43:56.670Z,518.28
2019-01-04T09:44:56.649Z,526.28
2019-01-04T09:45:56.590Z,515.05
2019-01-04T09:46:56.590Z,518.00
2019-01-04T09:47:57.139Z,521.13
2019-01-04T09:48:56.604Z,527.04
2019-01-04T09:50:03.769Z,523.50
2019-01-04T09:50:56.598Z,524.40
2019-01-04T09:51:56.729Z,524.34
2019-01-04T09:52:56.602Z,512.87
2019-01-04T09:53:56.599Z,517.63
2019-01-04T09:54:56.560Z,520.02
2019-01-04T09:55:56.480Z,522.63
2019-01-04T09:56:56.483Z,509.89
2019-01-04T09:57:56.537Z,517.18
2019-01-04T09:58:56.464Z,519.45
2019-01-04T09:59:56.474Z,509.49
2019-01-04T10:00:56.473Z,515.15
2019-01-04T10:01:56.427Z,525.14
2019-01-04T10:02:56.464Z,516.77
2019-01-04T10:03:56.424Z,514.53
2019-01-04T10:04:56.403Z,515.09
2019-01-04T10:05:56.381Z,524.58
2019-01-04T10:06:56.399Z,517.27
2019-01-04T10:07:56.419Z,509.67
2019-01-04T10:08:56.355Z,522.76
2019-01-04T10:09:56.361Z,523.67
2019-01-04T10:10:56.355Z,515.64
2019-01-04T10:11:56.327Z,516.66
2019-01-04T10:12:56.388Z,532.52
2019-01-04T10:13:56.322Z,525.69
2019-01-04T10:14:56.299Z,517.44
2019-01-04T10:15:56.287Z,513.79
2019-01-04T10:16:57.181Z,526.38
2019-01-04T10:17:57.650Z,519.55
2019-01-04T10:18:56.801Z,518.79
2019-01-04T10:19:56.234Z,522.66
2019-01-04T10:20:56.285Z,521.81
2019-01-04T10:21:56.211Z,515.34
2019-01-04T10:22:56.229Z,509.41
2019-01-04T10:23:56.251Z,515.15
2019-01-04T10:24:56.232Z,520.25
2019-01-04T10:25:56.228Z,515.43
2019-01-04T10:26:56.188Z,528.89
2019-01-04T10:27:56.227Z,523.99
2019-01-04T10:28:56.185Z,512.90
2019-01-04T10:29:56.141Z,512.28
2019-01-04T10:30:56.689Z,523.40
2019-01-04T10:31:56.156Z,520.31
2019-01-04T10:32:56.131Z,522.87
2019-01-04T10:33:56.170Z,525.49
2019-01-04T10:34:56.106Z,522.98
2019-01-04T10:35:56.104Z,527.99
2019-01-04T10:36:56.098Z,517.63
2019-01-04T10:37:56.116Z,510.50
2019-01-04T10:38:56.118Z,522.34
2019-01-04T10:39:56.104Z,514.77
2019-01-04T10:40:56.973Z,515.98
2019-01-04T10:41:56.050Z,524.38
2019-01-04T10:42:56.558Z,507.69
2019-01-04T10:43:56.032Z,529.27
2019-01-04T10:44:56.055Z,523.30
2019-01-04T10:45:56.039Z,524.89
2019-01-04T10:47:03.761Z,521.93
2019-01-04T10:47:55.976Z,505.03
2019-01-04T10:48:55.972Z,524.99
2019-01-04T10:49:55.922Z,525.30
2019-01-04T10:50:55.930Z,525.60
2019-01-04T10:51:55.918Z,511.76
2019-01-04T10:52:55.919Z,510.41
2019-01-04T10:53:55.879Z,517.57
2019-01-04T10:54:55.946Z,513.06
2019-01-04T10:55:55.858Z,509.05
2019-01-04T10:56:55.848Z,516.79
2019-01-04T10:57:55.854Z,526.71
2019-01-04T10:58:58.674Z,509.78
2019-01-04T10:59:58.685Z,523.99
2019-01-04T11:00:55.867Z,528.55
2019-01-04T11:01:55.804Z,516.24
2019-01-04T11:02:55.807Z,513.98
2019-01-04T11:03:55.801Z,513.48
2019-01-04T11:04:55.751Z,528.51
2019-01-04T11:05:55.757Z,521.13
2019-01-04T11:06:55.764Z,520.04
2019-01-04T11:07:55.741Z,521.07
2019-01-04T11:08:55.744Z,516.90
2019-01-04T11:09:55.749Z,520.95
2019-01-04T11:10:55.776Z,516.11
2019-01-04T11:11:55.818Z,512.39
2019-01-04T11:12:55.703Z,518.83
2019-01-04T11:13:55.697Z,516.68
2019-01-04T11:14:55.742Z,534.76
2019-01-04T11:15:55.751Z,517.12
2019-01-04T11:16:56.788Z,515.03
2019-01-04T11:18:03.403Z,515.23
2019-01-04T11:19:02.739Z,516.41
2019-01-04T11:20:02.744Z,525.05
2019-01-04T11:22:13.560Z,517.52
2019-01-04T11:23:23.598Z,515.80
2019-01-04T11:24:12.849Z,520.23
2019-01-04T11:25:12.723Z,519.64
2019-01-04T11:26:13.461Z,514.55
2019-01-04T11:27:12.837Z,516.41
2019-01-04T11:28:12.659Z,521.92
2019-01-04T11:29:12.624Z,518.82
2019-01-04T11:30:12.633Z,529.16
2019-01-04T11:31:12.654Z,517.71
2019-01-04T11:32:12.753Z,525.62
2019-01-04T11:33:12.589Z,522.47
2019-01-04T11:34:12.585Z,512.59
2019-01-04T11:35:12.567Z,529.51
2019-01-04T11:36:12.573Z,522.55
2019-01-04T11:37:12.581Z,525.48
2019-01-04T11:38:12.589Z,519.69
2019-01-04T11:39:12.537Z,526.43
2019-01-04T11:40:12.540Z,517.38
2019-01-04T11:41:12.612Z,515.87
2019-01-04T11:42:15.220Z,518.10
2019-01-04T11:43:12.556Z,514.88
2019-01-04T11:44:12.492Z,533.05
2019-01-04T11:45:32.434Z,520.87
2019-01-04T11:46:12.966Z,520.66
2019-01-04T11:47:12.700Z,522.47
2019-01-04T11:48:13.330Z,520.67
2019-01-04T11:49:13.361Z,513.04
2019-01-04T11:50:12.483Z,512.43
2019-01-04T11:51:12.429Z,514.02
2019-01-04T11:52:12.395Z,520.17
2019-01-04T11:53:12.500Z,515.57
2019-01-04T11:54:12.420Z,519.37
2019-01-04T11:55:12.402Z,530.77
2019-01-04T11:56:12.349Z,524.01
2019-01-04T11:57:13.296Z,512.06
2019-01-04T11:58:14.241Z,522.96
2019-01-04T11:59:12.531Z,515.17
2019-01-04T12:00:12.375Z,528.63
2019-01-04T12:01:15.688Z,524.91
2019-01-04T12:02:12.766Z,526.84
2019-01-04T12:03:14.475Z,527.72
2019-01-04T12:04:13.147Z,516.61
2019-01-04T12:05:12.267Z,516.12
2019-01-04T12:06:15.138Z,519.09
2019-01-04T12:07:12.256Z,511.93
2019-01-04T12:08:12.263Z,520.46
2019-01-04T12:09:12.222Z,514.65
2019-01-04T12:10:12.427Z,522.43
2019-01-04T12:11:12.187Z,518.51
2019-01-04T12:12:13.139Z,514.07
2019-01-04T12:13:12.184Z,525.37
2019-01-04T12:14:12.200Z,514.19
2019-01-04T12:15:12.141Z,513.45
2019-01-04T12:16:12.144Z,513.64
2019-01-04T12:17:12.130Z,514.37
2019-01-04T12:18:13.058Z,515.67
2019-01-04T12:19:13.066Z,517.79
2019-01-04T12:20:12.109Z,522.16
2019-01-04T12:21:19.681Z,519.94
2019-01-04T12:23:32.074Z,515.32
2019-01-04T12:26:11.748Z,515.15
2019-01-04T12:28:22.156Z,506.36
2019-01-04T12:29:30.165Z,521.19
2019-01-04T12:30:29.799Z,521.45
2019-01-04T12:31:30.054Z,515.74
2019-01-04T12:32:31.775Z,513.18
2019-01-04T12:33:30.157Z,520.08
2019-01-04T12:34:31.059Z,520.05
2019-01-04T12:35:32.704Z,527.42
2019-01-04T12:36:22.589Z,517.15
2019-01-04T12:37:30.382Z,523.37
2019-01-04T12:38:37.728Z,521.02
2019-01-04T12:39:22.557Z,515.06